Airfield :
LOGIN :

Register | Disclaimer

   EN    FR    IT 

 










Legend :    VFR   Marginal VFR   IFR   Intensive IFR   Very Intensive IFR
Visi :
Ceiling :
>= 8 km
>= 3000ft
5 to 8 km
1000 to 3000 ft
1500m to 5 km
500 to 1000 ft
800 to 1500m
200 to 500 ft
< 800m
< 200 ft
Symbols :   Thunderstorms  Fog  Heavy snow  Heavy precipitations  Wind > 20 kt
SIGMETs :     Misc.  Thunderstorms  Icing  Turbulence  Mountain Waves  Volcanic Ashes







- Airport Elevation : 157 ft
- IATA code : SXF


EDDB - Berlin Schönefeld

CURRENT METAR :
  • 200520Z 19003KT 4700 BR NSC 08/08 Q1018 NOSIG

EXPIRED METARs :
  • 200450Z 22003KT 3800 MIFG BR NSC 08/07 Q1018 TEMPO 0500 FG BKN007
  • 200420Z 19003KT 4800 R25L/0750VP2000U BCFG MIFG BR FEW007 BKN082 07/07 Q1017 TEMPO 0500 FG BKN007
  • 200350Z 24003KT 4600 R07L/0800VP2000U R25L/0500V0900U BCFG MIFG BR FEW007 06/06 Q1017 TEMPO 0500 FG BKN007
  • 200320Z 21003KT 9000 R25L/0800N BCFG MIFG NSC 07/06 Q1017 NOSIG
  • 200250Z 20003KT 9999 R25L/0650VP2000D MIFG NSC 07/07 Q1017 NOSIG

TAF COR TAF EDDB
Valid from the 20 at 06:00 until the 21 at 06:00 UTC


200500Z 2006/2106 27003KT 4000 BR NSC
BECMG 2006/2007 9999
BECMG 2009/2012 27008KT
No reported NOTAMs for that airfield.



MET'MAP, your aeronautical weather chart ! - Copyright ORBIFLY December 2007 - Disclaimer

ORBIFLY MET'MAP TEAM :

Programming & Development : Alexandra Zaïnal
Concept & Development : Baudouin d'Aumeries
Co-Development & Prog : Marc-Olivier Méhu
Technical & hardware support : Manuel Goepfert

Contact : metmap@orbifly.com




SOURCES & CREDITS :

   NOAA